Fort Mitchell, Virginia
Current Conditions -  °F | °C
As of 12:15 AM on Tuesday 23 Dec 2014 (Local Time) from KCXE Reporting Station
Overcast Overcast  
Wind Chill: 37°   Ceiling: 300
Heat Index: 37°   Visibility: 2mi
Dew Point: 37°   Wind: 3mph
Humidity: 100%   Direction: 330°NNW
Pressure: 30.06"   Gusts: NA
Location:  36.92°N, 78.49°W
Report Text: KCXE 230515Z AUTO 33003KT 2SM OVC003 03/03 A3006 RMK AO1 T00250025
Loading
Personal Weather Stations






























Interactive Weather Map New forecast layout! Learn more

10-Day Weather Forecast

Advertisements
Track Severe Weather on mobile